sensor_id;sensor_type;location;lat;lon;timestamp;pressure;altitude;pressure_sealevel;temperature;humidity
6090;BME280;3073;42.660;23.316;2022-11-15T00:01:15;95092.69;;;4.40;100.00
6090;BME280;3073;42.660;23.316;2022-11-15T00:03:43;95096.00;;;4.40;100.00
6090;BME280;3073;42.660;23.316;2022-11-15T00:06:12;95086.97;;;4.31;100.00
6090;BME280;3073;42.660;23.316;2022-11-15T00:08:39;95084.81;;;4.28;100.00
6090;BME280;3073;42.660;23.316;2022-11-15T00:11:06;95086.72;;;4.26;100.00
6090;BME280;3073;42.660;23.316;2022-11-15T00:13:34;95087.00;;;4.10;100.00
6090;BME280;3073;42.660;23.316;2022-11-15T00:16:01;95079.75;;;4.07;100.00
6090;BME280;3073;42.660;23.316;2022-11-15T00:18:30;95079.41;;;4.10;100.00
6090;BME280;3073;42.660;23.316;2022-11-15T00:21:03;95077.47;;;4.12;100.00
6090;BME280;3073;42.660;23.316;2022-11-15T00:23:32;95073.81;;;4.14;100.00
6090;BME280;3073;42.660;23.316;2022-11-15T00:25:59;95072.50;;;4.19;100.00
6090;BME280;3073;42.660;23.316;2022-11-15T00:28:26;95065.91;;;4.24;100.00
6090;BME280;3073;42.660;23.316;2022-11-15T00:30:54;95068.84;;;4.28;100.00
6090;BME280;3073;42.660;23.316;2022-11-15T00:33:26;95061.53;;;4.33;100.00
6090;BME280;3073;42.660;23.316;2022-11-15T00:35:52;95062.72;;;4.37;100.00
6090;BME280;3073;42.660;23.316;2022-11-15T00:38:19;95054.97;;;4.38;100.00
6090;BME280;3073;42.660;23.316;2022-11-15T00:40:47;95064.28;;;4.38;100.00
6090;BME280;3073;42.660;23.316;2022-11-15T00:43:14;95058.63;;;4.36;100.00
6090;BME280;3073;42.660;23.316;2022-11-15T00:45:44;95057.25;;;4.33;100.00
6090;BME280;3073;42.660;23.316;2022-11-15T00:48:11;95062.06;;;4.28;100.00
6090;BME280;3073;42.660;23.316;2022-11-15T00:50:38;95065.28;;;4.15;100.00
6090;BME280;3073;42.660;23.316;2022-11-15T00:53:05;95056.81;;;4.02;100.00
6090;BME280;3073;42.660;23.316;2022-11-15T00:55:32;95060.53;;;4.06;100.00
6090;BME280;3073;42.660;23.316;2022-11-15T00:58:00;95053.91;;;4.05;100.00
6090;BME280;3073;42.660;23.316;2022-11-15T01:00:27;95051.88;;;3.94;100.00
6090;BME280;3073;42.660;23.316;2022-11-15T01:02:55;95048.09;;;4.04;100.00
6090;BME280;3073;42.660;23.316;2022-11-15T01:05:22;95053.44;;;3.95;100.00
6090;BME280;3073;42.660;23.316;2022-11-15T01:07:51;95048.66;;;4.00;100.00
6090;BME280;3073;42.660;23.316;2022-11-15T01:10:18;95046.81;;;3.94;100.00
6090;BME280;3073;42.660;23.316;2022-11-15T01:12:50;95047.13;;;3.84;100.00
6090;BME280;3073;42.660;23.316;2022-11-15T01:15:18;95051.41;;;3.84;100.00
6090;BME280;3073;42.660;23.316;2022-11-15T01:17:45;95043.78;;;3.77;100.00
6090;BME280;3073;42.660;23.316;2022-11-15T01:20:14;95046.66;;;3.74;100.00
6090;BME280;3073;42.660;23.316;2022-11-15T01:22:44;95034.22;;;3.73;100.00
6090;BME280;3073;42.660;23.316;2022-11-15T01:25:11;95037.84;;;3.63;100.00
6090;BME280;3073;42.660;23.316;2022-11-15T01:27:37;95034.56;;;3.91;100.00
6090;BME280;3073;42.660;23.316;2022-11-15T01:30:06;95035.03;;;4.01;100.00
6090;BME280;3073;42.660;23.316;2022-11-15T01:32:34;95032.66;;;3.93;100.00
6090;BME280;3073;42.660;23.316;2022-11-15T01:35:01;95034.81;;;3.96;100.00
6090;BME280;3073;42.660;23.316;2022-11-15T01:37:28;95039.72;;;4.04;100.00
6090;BME280;3073;42.660;23.316;2022-11-15T01:39:56;95036.03;;;4.00;100.00
6090;BME280;3073;42.660;23.316;2022-11-15T01:42:22;95038.84;;;3.90;100.00
6090;BME280;3073;42.660;23.316;2022-11-15T01:44:50;95037.03;;;3.84;100.00
6090;BME280;3073;42.660;23.316;2022-11-15T01:47:20;95030.03;;;3.80;100.00
6090;BME280;3073;42.660;23.316;2022-11-15T01:49:55;95032.00;;;3.84;100.00
6090;BME280;3073;42.660;23.316;2022-11-15T01:52:26;95027.88;;;3.77;100.00
6090;BME280;3073;42.660;23.316;2022-11-15T01:55:00;95027.31;;;3.81;100.00
6090;BME280;3073;42.660;23.316;2022-11-15T01:57:29;95026.16;;;3.84;100.00
6090;BME280;3073;42.660;23.316;2022-11-15T01:59:57;95030.16;;;3.93;100.00
6090;BME280;3073;42.660;23.316;2022-11-15T02:02:24;95030.94;;;3.93;100.00
6090;BME280;3073;42.660;23.316;2022-11-15T02:04:54;95028.16;;;3.88;100.00
6090;BME280;3073;42.660;23.316;2022-11-15T02:07:22;95031.63;;;3.87;100.00
6090;BME280;3073;42.660;23.316;2022-11-15T02:09:49;95033.56;;;3.85;100.00
6090;BME280;3073;42.660;23.316;2022-11-15T02:12:19;95029.31;;;3.86;100.00
6090;BME280;3073;42.660;23.316;2022-11-15T02:14:50;95032.00;;;3.84;100.00
6090;BME280;3073;42.660;23.316;2022-11-15T02:17:30;95025.16;;;3.78;100.00
6090;BME280;3073;42.660;23.316;2022-11-15T02:20:20;95022.63;;;3.78;100.00
6090;BME280;3073;42.660;23.316;2022-11-15T02:23:21;95023.41;;;3.79;100.00
6090;BME280;3073;42.660;23.316;2022-11-15T02:26:14;95028.03;;;3.75;100.00
6090;BME280;3073;42.660;23.316;2022-11-15T02:28:54;95034.22;;;3.73;100.00
6090;BME280;3073;42.660;23.316;2022-11-15T02:31:28;95030.34;;;3.70;100.00
6090;BME280;3073;42.660;23.316;2022-11-15T02:34:02;95021.38;;;3.68;100.00
6090;BME280;3073;42.660;23.316;2022-11-15T02:36:39;95027.03;;;3.70;100.00
6090;BME280;3073;42.660;23.316;2022-11-15T02:39:11;95023.00;;;3.75;100.00
6090;BME280;3073;42.660;23.316;2022-11-15T02:41:45;95024.38;;;3.78;100.00
6090;BME280;3073;42.660;23.316;2022-11-15T02:44:18;95019.38;;;3.84;100.00
6090;BME280;3073;42.660;23.316;2022-11-15T02:46:51;95036.63;;;3.81;100.00
6090;BME280;3073;42.660;23.316;2022-11-15T02:49:37;95026.16;;;3.84;100.00
6090;BME280;3073;42.660;23.316;2022-11-15T02:52:06;95025.63;;;3.88;100.00
6090;BME280;3073;42.660;23.316;2022-11-15T02:54:34;95025.16;;;3.99;100.00
6090;BME280;3073;42.660;23.316;2022-11-15T02:57:03;95023.00;;;3.96;100.00
6090;BME280;3073;42.660;23.316;2022-11-15T02:59:58;95023.78;;;3.97;100.00
6090;BME280;3073;42.660;23.316;2022-11-15T03:02:40;95031.41;;;4.03;100.00
6090;BME280;3073;42.660;23.316;2022-11-15T03:05:17;95032.56;;;4.07;100.00
6090;BME280;3073;42.660;23.316;2022-11-15T03:07:52;95040.75;;;4.09;100.00
6090;BME280;3073;42.660;23.316;2022-11-15T03:10:25;95029.56;;;4.19;100.00
6090;BME280;3073;42.660;23.316;2022-11-15T03:12:55;95034.16;;;4.08;100.00
6090;BME280;3073;42.660;23.316;2022-11-15T03:15:28;95031.31;;;4.18;100.00
6090;BME280;3073;42.660;23.316;2022-11-15T03:18:00;95025.28;;;4.19;100.00
6090;BME280;3073;42.660;23.316;2022-11-15T03:20:29;95025.41;;;4.11;100.00
6090;BME280;3073;42.660;23.316;2022-11-15T03:23:04;95024.22;;;4.07;100.00
6090;BME280;3073;42.660;23.316;2022-11-15T03:25:34;95017.66;;;4.12;100.00
6090;BME280;3073;42.660;23.316;2022-11-15T03:28:05;95019.63;;;4.17;100.00
6090;BME280;3073;42.660;23.316;2022-11-15T03:30:34;95019.63;;;4.17;100.00
6090;BME280;3073;42.660;23.316;2022-11-15T03:33:04;95016.03;;;4.26;100.00
6090;BME280;3073;42.660;23.316;2022-11-15T03:35:36;95017.03;;;4.32;100.00
6090;BME280;3073;42.660;23.316;2022-11-15T03:38:08;95011.47;;;4.43;100.00
6090;BME280;3073;42.660;23.316;2022-11-15T03:40:40;95007.56;;;4.40;100.00
6090;BME280;3073;42.660;23.316;2022-11-15T03:43:22;95003.69;;;4.44;100.00
6090;BME280;3073;42.660;23.316;2022-11-15T03:45:55;94999.66;;;4.50;100.00
6090;BME280;3073;42.660;23.316;2022-11-15T03:48:30;94999.09;;;4.54;100.00
6090;BME280;3073;42.660;23.316;2022-11-15T03:51:00;94997.19;;;4.56;100.00
6090;BME280;3073;42.660;23.316;2022-11-15T03:53:28;94995.25;;;4.65;100.00
6090;BME280;3073;42.660;23.316;2022-11-15T03:55:56;94990.22;;;4.65;100.00
6090;BME280;3073;42.660;23.316;2022-11-15T03:58:23;94987.13;;;4.70;100.00
6090;BME280;3073;42.660;23.316;2022-11-15T04:00:49;94988.47;;;4.65;100.00
6090;BME280;3073;42.660;23.316;2022-11-15T04:03:16;94992.34;;;4.68;100.00
6090;BME280;3073;42.660;23.316;2022-11-15T04:05:44;94990.41;;;4.63;100.00
6090;BME280;3073;42.660;23.316;2022-11-15T04:08:11;94992.94;;;4.63;100.00
6090;BME280;3073;42.660;23.316;2022-11-15T04:10:38;94991.94;;;4.64;100.00
6090;BME280;3073;42.660;23.316;2022-11-15T04:13:05;94983.63;;;4.71;100.00
6090;BME280;3073;42.660;23.316;2022-11-15T04:15:33;94989.47;;;4.71;100.00
6090;BME280;3073;42.660;23.316;2022-11-15T04:18:00;94984.41;;;4.71;100.00
6090;BME280;3073;42.660;23.316;2022-11-15T04:20:30;94984.59;;;4.70;100.00
6090;BME280;3073;42.660;23.316;2022-11-15T04:23:17;94971.97;;;4.70;100.00
6090;BME280;3073;42.660;23.316;2022-11-15T04:26:04;94977.84;;;4.77;100.00
6090;BME280;3073;42.660;23.316;2022-11-15T04:28:32;94977.03;;;4.70;100.00
6090;BME280;3073;42.660;23.316;2022-11-15T04:31:00;94970.31;;;4.49;100.00
6090;BME280;3073;42.660;23.316;2022-11-15T04:33:26;94972.03;;;4.14;100.00
6090;BME280;3073;42.660;23.316;2022-11-15T04:35:54;94966.84;;;3.94;100.00
6090;BME280;3073;42.660;23.316;2022-11-15T04:38:39;94966.78;;;3.88;100.00
6090;BME280;3073;42.660;23.316;2022-11-15T04:41:06;94961.44;;;3.97;100.00
6090;BME280;3073;42.660;23.316;2022-11-15T04:43:33;94960.69;;;3.97;100.00
6090;BME280;3073;42.660;23.316;2022-11-15T04:46:00;94966.59;;;3.83;100.00
6090;BME280;3073;42.660;23.316;2022-11-15T04:48:27;94963.97;;;3.70;100.00
6090;BME280;3073;42.660;23.316;2022-11-15T04:50:54;94969.84;;;3.77;100.00
6090;BME280;3073;42.660;23.316;2022-11-15T04:53:21;94964.97;;;3.54;100.00
6090;BME280;3073;42.660;23.316;2022-11-15T04:55:49;94960.44;;;3.43;100.00
6090;BME280;3073;42.660;23.316;2022-11-15T04:58:16;94958.44;;;3.59;100.00
6090;BME280;3073;42.660;23.316;2022-11-15T05:00:42;94968.09;;;3.56;100.00
6090;BME280;3073;42.660;23.316;2022-11-15T05:03:09;94968.56;;;3.45;100.00
6090;BME280;3073;42.660;23.316;2022-11-15T05:06:06;94963.72;;;3.43;100.00
6090;BME280;3073;42.660;23.316;2022-11-15T05:08:33;94969.72;;;3.42;100.00
6090;BME280;3073;42.660;23.316;2022-11-15T05:11:01;94960.94;;;3.38;100.00
6090;BME280;3073;42.660;23.316;2022-11-15T05:13:28;94964.25;;;3.39;100.00
6090;BME280;3073;42.660;23.316;2022-11-15T05:15:56;94966.38;;;3.56;100.00
6090;BME280;3073;42.660;23.316;2022-11-15T05:18:23;94962.41;;;3.26;100.00
6090;BME280;3073;42.660;23.316;2022-11-15T05:20:50;94951.63;;;3.18;100.00
6090;BME280;3073;42.660;23.316;2022-11-15T05:23:16;94959.91;;;3.11;100.00
6090;BME280;3073;42.660;23.316;2022-11-15T05:25:44;94957.94;;;3.28;100.00
6090;BME280;3073;42.660;23.316;2022-11-15T05:28:12;94958.69;;;3.43;100.00
6090;BME280;3073;42.660;23.316;2022-11-15T05:30:39;94955.13;;;3.59;100.00
6090;BME280;3073;42.660;23.316;2022-11-15T05:33:06;94953.91;;;3.76;100.00
6090;BME280;3073;42.660;23.316;2022-11-15T05:35:35;94960.97;;;3.87;100.00
6090;BME280;3073;42.660;23.316;2022-11-15T05:38:05;94963.19;;;3.97;100.00
6090;BME280;3073;42.660;23.316;2022-11-15T05:40:32;94960.72;;;4.03;100.00
6090;BME280;3073;42.660;23.316;2022-11-15T05:43:02;94964.50;;;4.21;100.00
6090;BME280;3073;42.660;23.316;2022-11-15T05:45:33;94974.47;;;4.29;100.00
6090;BME280;3073;42.660;23.316;2022-11-15T05:48:04;94975.09;;;4.37;100.00
6090;BME280;3073;42.660;23.316;2022-11-15T05:50:33;94979.41;;;4.43;100.00
6090;BME280;3073;42.660;23.316;2022-11-15T05:53:01;94973.78;;;4.48;100.00
6090;BME280;3073;42.660;23.316;2022-11-15T05:55:28;94981.56;;;4.46;100.00
6090;BME280;3073;42.660;23.316;2022-11-15T05:57:55;94982.00;;;4.56;100.00
6090;BME280;3073;42.660;23.316;2022-11-15T06:00:22;94984.53;;;4.56;100.00
6090;BME280;3073;42.660;23.316;2022-11-15T06:02:50;94985.34;;;4.63;100.00
6090;BME280;3073;42.660;23.316;2022-11-15T06:05:17;94987.78;;;4.50;100.00
6090;BME280;3073;42.660;23.316;2022-11-15T06:07:44;94987.97;;;4.42;100.00
6090;BME280;3073;42.660;23.316;2022-11-15T06:10:13;94985.19;;;4.37;100.00
6090;BME280;3073;42.660;23.316;2022-11-15T06:12:40;94985.00;;;4.39;100.00
6090;BME280;3073;42.660;23.316;2022-11-15T06:15:08;94993.28;;;4.60;100.00
6090;BME280;3073;42.660;23.316;2022-11-15T06:17:35;94988.97;;;4.54;100.00
6090;BME280;3073;42.660;23.316;2022-11-15T06:20:05;94984.84;;;4.40;100.00
6090;BME280;3073;42.660;23.316;2022-11-15T06:22:33;94989.03;;;4.27;100.00
6090;BME280;3073;42.660;23.316;2022-11-15T06:25:00;94990.94;;;4.25;100.00
6090;BME280;3073;42.660;23.316;2022-11-15T06:27:27;94989.28;;;4.38;100.00
6090;BME280;3073;42.660;23.316;2022-11-15T06:29:54;94977.91;;;4.21;100.00
6090;BME280;3073;42.660;23.316;2022-11-15T06:32:22;94984.59;;;4.07;100.00
6090;BME280;3073;42.660;23.316;2022-11-15T06:34:49;94973.59;;;4.15;100.00
6090;BME280;3073;42.660;23.316;2022-11-15T06:37:18;94976.53;;;4.19;100.00
6090;BME280;3073;42.660;23.316;2022-11-15T06:39:45;94967.34;;;4.11;100.00
6090;BME280;3073;42.660;23.316;2022-11-15T06:42:12;94972.66;;;4.16;100.00
6090;BME280;3073;42.660;23.316;2022-11-15T06:44:39;94967.72;;;4.08;100.00
6090;BME280;3073;42.660;23.316;2022-11-15T06:47:06;94960.84;;;4.23;100.00
6090;BME280;3073;42.660;23.316;2022-11-15T06:49:32;94968.66;;;4.35;100.00
6090;BME280;3073;42.660;23.316;2022-11-15T06:51:59;94968.25;;;4.31;100.00
6090;BME280;3073;42.660;23.316;2022-11-15T06:54:29;94971.06;;;4.43;100.00
6090;BME280;3073;42.660;23.316;2022-11-15T06:56:56;94971.31;;;4.20;100.00
6090;BME280;3073;42.660;23.316;2022-11-15T06:59:22;94974.47;;;4.29;100.00
6090;BME280;3073;42.660;23.316;2022-11-15T07:01:49;94970.75;;;4.25;100.00
6090;BME280;3073;42.660;23.316;2022-11-15T07:04:16;94964.19;;;4.30;100.00
6090;BME280;3073;42.660;23.316;2022-11-15T07:06:46;94964.00;;;4.32;100.00
6090;BME280;3073;42.660;23.316;2022-11-15T07:09:13;94966.56;;;4.38;100.00
6090;BME280;3073;42.660;23.316;2022-11-15T07:11:42;94966.78;;;4.43;100.00
6090;BME280;3073;42.660;23.316;2022-11-15T07:14:09;94964.19;;;4.30;100.00
6090;BME280;3073;42.660;23.316;2022-11-15T07:16:36;94957.13;;;4.53;100.00
6090;BME280;3073;42.660;23.316;2022-11-15T07:19:03;94950.91;;;4.56;100.00
6090;BME280;3073;42.660;23.316;2022-11-15T07:21:30;94954.78;;;4.52;100.00
6090;BME280;3073;42.660;23.316;2022-11-15T07:23:57;94957.88;;;4.54;100.00
6090;BME280;3073;42.660;23.316;2022-11-15T07:26:24;94964.53;;;4.61;100.00
6090;BME280;3073;42.660;23.316;2022-11-15T07:28:53;94963.59;;;4.69;100.00
6090;BME280;3073;42.660;23.316;2022-11-15T07:31:20;94964.22;;;4.78;100.00
6090;BME280;3073;42.660;23.316;2022-11-15T07:33:48;94966.69;;;4.64;100.00
6090;BME280;3073;42.660;23.316;2022-11-15T07:36:15;94962.00;;;4.61;100.00
6090;BME280;3073;42.660;23.316;2022-11-15T07:38:42;94969.38;;;4.56;100.00
6090;BME280;3073;42.660;23.316;2022-11-15T07:41:10;94975.34;;;4.49;100.00
6090;BME280;3073;42.660;23.316;2022-11-15T07:43:37;94967.09;;;4.68;100.00
6090;BME280;3073;42.660;23.316;2022-11-15T07:46:06;94958.00;;;4.74;100.00
6090;BME280;3073;42.660;23.316;2022-11-15T07:48:34;94963.28;;;4.85;100.00
6090;BME280;3073;42.660;23.316;2022-11-15T07:51:02;94963.44;;;4.84;100.00
6090;BME280;3073;42.660;23.316;2022-11-15T07:53:29;94959.75;;;4.80;100.00
6090;BME280;3073;42.660;23.316;2022-11-15T07:55:56;94962.16;;;5.01;100.00
6090;BME280;3073;42.660;23.316;2022-11-15T07:58:23;94966.25;;;5.02;100.00
6090;BME280;3073;42.660;23.316;2022-11-15T08:00:49;94961.22;;;5.15;100.00
6090;BME280;3073;42.660;23.316;2022-11-15T08:03:17;94964.94;;;5.12;100.00
6090;BME280;3073;42.660;23.316;2022-11-15T08:05:50;94961.84;;;5.17;100.00
6090;BME280;3073;42.660;23.316;2022-11-15T08:08:18;94964.31;;;5.10;100.00
6090;BME280;3073;42.660;23.316;2022-11-15T08:10:45;94956.81;;;4.70;100.00
6090;BME280;3073;42.660;23.316;2022-11-15T08:13:12;94958.72;;;4.67;100.00
6090;BME280;3073;42.660;23.316;2022-11-15T08:15:39;94951.31;;;4.59;100.00
6090;BME280;3073;42.660;23.316;2022-11-15T08:18:10;94950.34;;;4.60;100.00
6090;BME280;3073;42.660;23.316;2022-11-15T08:20:39;94945.63;;;4.51;100.00
6090;BME280;3073;42.660;23.316;2022-11-15T08:23:07;94949.41;;;4.68;100.00
6090;BME280;3073;42.660;23.316;2022-11-15T08:25:35;94946.53;;;4.84;100.00
6090;BME280;3073;42.660;23.316;2022-11-15T08:28:04;94945.25;;;5.01;100.00
6090;BME280;3073;42.660;23.316;2022-11-15T08:30:35;94949.56;;;5.20;100.00
6090;BME280;3073;42.660;23.316;2022-11-15T08:33:03;94946.09;;;5.28;100.00
6090;BME280;3073;42.660;23.316;2022-11-15T08:35:30;94951.56;;;5.38;100.00
6090;BME280;3073;42.660;23.316;2022-11-15T08:37:59;94950.22;;;5.49;100.00
6090;BME280;3073;42.660;23.316;2022-11-15T08:40:26;94955.47;;;5.60;100.00
6090;BME280;3073;42.660;23.316;2022-11-15T08:42:53;94951.19;;;5.67;100.00
6090;BME280;3073;42.660;23.316;2022-11-15T08:45:20;94945.34;;;5.60;100.00
6090;BME280;3073;42.660;23.316;2022-11-15T08:47:48;94933.47;;;5.61;100.00
6090;BME280;3073;42.660;23.316;2022-11-15T08:50:15;94934.84;;;5.70;100.00
6090;BME280;3073;42.660;23.316;2022-11-15T08:52:42;94933.47;;;5.67;100.00
6090;BME280;3073;42.660;23.316;2022-11-15T08:55:10;94938.34;;;5.76;100.00
6090;BME280;3073;42.660;23.316;2022-11-15T08:57:37;94929.78;;;5.57;100.00
6090;BME280;3073;42.660;23.316;2022-11-15T09:00:07;94926.88;;;5.66;100.00
6090;BME280;3073;42.660;23.316;2022-11-15T09:02:34;94925.88;;;5.81;100.00
6090;BME280;3073;42.660;23.316;2022-11-15T09:05:01;94923.16;;;6.02;100.00
6090;BME280;3073;42.660;23.316;2022-11-15T09:07:28;94924.53;;;6.04;100.00
6090;BME280;3073;42.660;23.316;2022-11-15T09:09:56;94921.03;;;5.99;100.00
6090;BME280;3073;42.660;23.316;2022-11-15T09:12:24;94913.84;;;5.89;100.00
6090;BME280;3073;42.660;23.316;2022-11-15T09:14:52;94913.59;;;6.04;100.00
6090;BME280;3073;42.660;23.316;2022-11-15T09:17:19;94910.13;;;5.98;100.00
6090;BME280;3073;42.660;23.316;2022-11-15T09:19:46;94909.13;;;6.06;100.00
6090;BME280;3073;42.660;23.316;2022-11-15T09:22:12;94903.84;;;6.14;100.00
6090;BME280;3073;42.660;23.316;2022-11-15T09:24:40;94905.22;;;6.23;100.00
6090;BME280;3073;42.660;23.316;2022-11-15T09:27:08;94902.63;;;6.36;100.00
6090;BME280;3073;42.660;23.316;2022-11-15T09:29:37;94905.69;;;6.51;100.00
6090;BME280;3073;42.660;23.316;2022-11-15T09:32:04;94899.66;;;6.52;100.00
6090;BME280;3073;42.660;23.316;2022-11-15T09:34:31;94897.94;;;6.40;100.00
6090;BME280;3073;42.660;23.316;2022-11-15T09:36:58;94889.41;;;6.21;100.00
6090;BME280;3073;42.660;23.316;2022-11-15T09:39:25;94890.22;;;6.08;100.00
6090;BME280;3073;42.660;23.316;2022-11-15T09:42:01;94889.44;;;6.08;100.00
6090;BME280;3073;42.660;23.316;2022-11-15T09:44:57;94888.09;;;6.05;100.00
6090;BME280;3073;42.660;23.316;2022-11-15T09:47:40;94885.38;;;6.07;100.00
6090;BME280;3073;42.660;23.316;2022-11-15T09:50:14;94878.56;;;5.94;100.00
6090;BME280;3073;42.660;23.316;2022-11-15T09:52:44;94871.75;;;5.88;100.00
6090;BME280;3073;42.660;23.316;2022-11-15T09:55:14;94871.75;;;5.95;100.00
6090;BME280;3073;42.660;23.316;2022-11-15T09:57:50;94867.19;;;6.30;100.00
6090;BME280;3073;42.660;23.316;2022-11-15T10:00:25;94861.03;;;6.63;100.00
6090;BME280;3073;42.660;23.316;2022-11-15T10:03:08;94855.72;;;7.03;100.00
6090;BME280;3073;42.660;23.316;2022-11-15T10:05:38;94863.34;;;7.28;100.00
6090;BME280;3073;42.660;23.316;2022-11-15T10:08:16;94858.50;;;7.51;100.00
6090;BME280;3073;42.660;23.316;2022-11-15T10:10:49;94856.66;;;8.01;100.00
6090;BME280;3073;42.660;23.316;2022-11-15T10:13:22;94848.13;;;7.77;100.00
6090;BME280;3073;42.660;23.316;2022-11-15T10:15:53;94843.78;;;7.59;100.00
6090;BME280;3073;42.660;23.316;2022-11-15T10:18:28;94839.53;;;6.97;100.00
6090;BME280;3073;42.660;23.316;2022-11-15T10:21:12;94840.19;;;7.17;100.00
6090;BME280;3073;42.660;23.316;2022-11-15T10:23:42;94836.94;;;7.10;100.00
6090;BME280;3073;42.660;23.316;2022-11-15T10:26:11;94842.69;;;7.24;100.00
6090;BME280;3073;42.660;23.316;2022-11-15T10:28:40;94835.03;;;7.55;100.00
6090;BME280;3073;42.660;23.316;2022-11-15T10:31:22;94826.19;;;7.83;100.00
6090;BME280;3073;42.660;23.316;2022-11-15T10:33:51;94829.63;;;8.61;100.00
6090;BME280;3073;42.660;23.316;2022-11-15T10:36:21;94824.31;;;9.68;100.00
6090;BME280;3073;42.660;23.316;2022-11-15T10:38:54;94830.47;;;10.99;100.00
6090;BME280;3073;42.660;23.316;2022-11-15T10:41:27;94828.09;;;11.75;100.00
6090;BME280;3073;42.660;23.316;2022-11-15T10:44:09;94820.09;;;12.27;100.00
6090;BME280;3073;42.660;23.316;2022-11-15T10:46:40;94816.91;;;12.63;100.00
6090;BME280;3073;42.660;23.316;2022-11-15T10:49:13;94805.13;;;13.11;100.00
6090;BME280;3073;42.660;23.316;2022-11-15T10:51:44;94802.31;;;13.44;100.00
6090;BME280;3073;42.660;23.316;2022-11-15T10:54:12;94805.63;;;13.45;100.00
6090;BME280;3073;42.660;23.316;2022-11-15T10:56:40;94802.53;;;13.84;100.00
6090;BME280;3073;42.660;23.316;2022-11-15T10:59:16;94800.44;;;14.28;99.64
6090;BME280;3073;42.660;23.316;2022-11-15T11:01:47;94792.69;;;14.85;90.92
6090;BME280;3073;42.660;23.316;2022-11-15T11:04:15;94790.13;;;15.06;87.34
6090;BME280;3073;42.660;23.316;2022-11-15T11:06:49;94779.34;;;14.99;81.93
6090;BME280;3073;42.660;23.316;2022-11-15T11:09:33;94772.91;;;15.31;79.32
6090;BME280;3073;42.660;23.316;2022-11-15T11:12:01;94773.41;;;15.69;77.01
6090;BME280;3073;42.660;23.316;2022-11-15T11:14:30;94777.75;;;15.93;75.11
6090;BME280;3073;42.660;23.316;2022-11-15T11:17:03;94765.25;;;16.26;72.73
6090;BME280;3073;42.660;23.316;2022-11-15T11:19:52;94762.28;;;15.98;70.67
6090;BME280;3073;42.660;23.316;2022-11-15T11:22:34;94757.66;;;14.34;80.26
6090;BME280;3073;42.660;23.316;2022-11-15T11:25:35;94745.53;;;14.29;88.76
6090;BME280;3073;42.660;23.316;2022-11-15T11:28:17;94741.75;;;14.37;84.83
6090;BME280;3073;42.660;23.316;2022-11-15T11:30:58;94737.69;;;15.12;79.99
6090;BME280;3073;42.660;23.316;2022-11-15T11:33:31;94729.44;;;15.65;77.09
6090;BME280;3073;42.660;23.316;2022-11-15T11:36:09;94729.38;;;15.90;75.21
6090;BME280;3073;42.660;23.316;2022-11-15T11:38:56;94710.66;;;16.29;70.74
6090;BME280;3073;42.660;23.316;2022-11-15T11:41:39;94714.75;;;16.35;69.02
6090;BME280;3073;42.660;23.316;2022-11-15T11:44:20;94707.19;;;16.00;70.33
6090;BME280;3073;42.660;23.316;2022-11-15T11:46:55;94704.25;;;15.57;74.72
6090;BME280;3073;42.660;23.316;2022-11-15T11:49:28;94700.41;;;16.19;71.14
6090;BME280;3073;42.660;23.316;2022-11-15T11:52:02;94698.38;;;16.16;70.53
6090;BME280;3073;42.660;23.316;2022-11-15T11:54:37;94703.16;;;16.37;69.30
6090;BME280;3073;42.660;23.316;2022-11-15T11:57:25;94691.75;;;16.00;70.60
6090;BME280;3073;42.660;23.316;2022-11-15T11:59:58;94682.97;;;16.06;70.29
6090;BME280;3073;42.660;23.316;2022-11-15T12:02:28;94685.63;;;15.85;70.66
6090;BME280;3073;42.660;23.316;2022-11-15T12:05:05;94677.13;;;15.90;70.49
6090;BME280;3073;42.660;23.316;2022-11-15T12:07:39;94672.34;;;15.63;72.22
6090;BME280;3073;42.660;23.316;2022-11-15T12:10:17;94673.34;;;15.77;72.53
6090;BME280;3073;42.660;23.316;2022-11-15T12:12:52;94656.16;;;15.58;72.92
6090;BME280;3073;42.660;23.316;2022-11-15T12:15:24;94662.47;;;15.90;72.10
6090;BME280;3073;42.660;23.316;2022-11-15T12:17:54;94664.25;;;16.39;70.44
6090;BME280;3073;42.660;23.316;2022-11-15T12:20:24;94656.81;;;16.37;68.74
6090;BME280;3073;42.660;23.316;2022-11-15T12:22:55;94652.03;;;16.55;67.99
6090;BME280;3073;42.660;23.316;2022-11-15T12:25:29;94651.56;;;16.09;68.44
6090;BME280;3073;42.660;23.316;2022-11-15T12:28:00;94646.38;;;16.14;69.28
6090;BME280;3073;42.660;23.316;2022-11-15T12:30:44;94635.75;;;16.25;70.02
6090;BME280;3073;42.660;23.316;2022-11-15T12:33:30;94638.50;;;15.95;70.15
6090;BME280;3073;42.660;23.316;2022-11-15T12:36:01;94632.94;;;16.22;69.32
6090;BME280;3073;42.660;23.316;2022-11-15T12:38:55;94634.25;;;16.19;68.38
6090;BME280;3073;42.660;23.316;2022-11-15T12:41:23;94624.13;;;16.28;67.16
6090;BME280;3073;42.660;23.316;2022-11-15T12:43:51;94630.56;;;15.81;70.44
6090;BME280;3073;42.660;23.316;2022-11-15T12:46:23;94626.16;;;15.97;69.99
6090;BME280;3073;42.660;23.316;2022-11-15T12:49:11;94623.66;;;16.26;67.95
6090;BME280;3073;42.660;23.316;2022-11-15T12:52:07;94613.22;;;15.43;71.43
6090;BME280;3073;42.660;23.316;2022-11-15T12:54:55;94623.84;;;15.11;77.34
6090;BME280;3073;42.660;23.316;2022-11-15T12:57:29;94616.38;;;15.15;76.07
6090;BME280;3073;42.660;23.316;2022-11-15T12:59:57;94615.94;;;14.82;78.61
6090;BME280;3073;42.660;23.316;2022-11-15T13:02:30;94613.53;;;15.21;78.27
6090;BME280;3073;42.660;23.316;2022-11-15T13:07:59;94608.13;;;15.28;77.12
6090;BME280;3073;42.660;23.316;2022-11-15T13:10:31;94608.81;;;15.64;76.23
6090;BME280;3073;42.660;23.316;2022-11-15T13:12:59;94608.06;;;16.07;74.97
6090;BME280;3073;42.660;23.316;2022-11-15T13:15:51;94601.13;;;16.80;69.13
6090;BME280;3073;42.660;23.316;2022-11-15T13:18:34;94595.94;;;17.33;65.40
6090;BME280;3073;42.660;23.316;2022-11-15T13:21:03;94594.09;;;16.57;67.08
6090;BME280;3073;42.660;23.316;2022-11-15T13:23:55;94592.88;;;16.78;66.54
6090;BME280;3073;42.660;23.316;2022-11-15T13:26:22;94599.63;;;16.74;66.45
6090;BME280;3073;42.660;23.316;2022-11-15T13:28:51;94593.03;;;16.58;67.59
6090;BME280;3073;42.660;23.316;2022-11-15T13:31:34;94578.66;;;16.52;67.49
6090;BME280;3073;42.660;23.316;2022-11-15T13:34:12;94578.63;;;15.79;70.96